sensor_id;sensor_type;location;lat;lon;timestamp;pressure;altitude;pressure_sealevel;temperature;humidity
6423;BME280;3244;42.708;23.288;2023-03-17T00:00:47;95219.09;;;4.49;81.94
6423;BME280;3244;42.708;23.288;2023-03-17T00:03:19;95221.69;;;4.41;82.07
6423;BME280;3244;42.708;23.288;2023-03-17T00:05:47;95217.56;;;4.28;82.46
6423;BME280;3244;42.708;23.288;2023-03-17T00:08:19;95228.44;;;4.34;82.00
6423;BME280;3244;42.708;23.288;2023-03-17T00:10:46;95226.78;;;4.29;82.03
6423;BME280;3244;42.708;23.288;2023-03-17T00:13:13;95235.19;;;4.25;82.81
6423;BME280;3244;42.708;23.288;2023-03-17T00:15:41;95226.06;;;4.18;83.08
6423;BME280;3244;42.708;23.288;2023-03-17T00:18:11;95228.56;;;4.18;82.89
6423;BME280;3244;42.708;23.288;2023-03-17T00:20:40;95230.28;;;4.13;83.75
6423;BME280;3244;42.708;23.288;2023-03-17T00:23:12;95226.91;;;4.14;83.52
6423;BME280;3244;42.708;23.288;2023-03-17T00:25:40;95231.94;;;4.14;83.46
6423;BME280;3244;42.708;23.288;2023-03-17T00:28:14;95227.72;;;4.19;82.91
6423;BME280;3244;42.708;23.288;2023-03-17T00:30:41;95231.03;;;4.22;83.76
6423;BME280;3244;42.708;23.288;2023-03-17T00:33:09;95225.13;;;4.29;83.33
6423;BME280;3244;42.708;23.288;2023-03-17T00:35:36;95227.63;;;4.29;82.47
6423;BME280;3244;42.708;23.288;2023-03-17T00:38:10;95217.63;;;4.22;82.69
6423;BME280;3244;42.708;23.288;2023-03-17T00:40:40;95225.13;;;4.28;82.95
6423;BME280;3244;42.708;23.288;2023-03-17T00:43:07;95227.63;;;4.29;82.66
6423;BME280;3244;42.708;23.288;2023-03-17T00:45:34;95225.88;;;4.43;82.13
6423;BME280;3244;42.708;23.288;2023-03-17T00:48:02;95227.56;;;4.41;82.06
6423;BME280;3244;42.708;23.288;2023-03-17T00:50:32;95233.44;;;4.39;82.46
6423;BME280;3244;42.708;23.288;2023-03-17T00:52:58;95227.59;;;4.37;82.04
6423;BME280;3244;42.708;23.288;2023-03-17T00:55:27;95230.09;;;4.40;82.42
6423;BME280;3244;42.708;23.288;2023-03-17T00:57:53;95235.16;;;4.34;82.51
6423;BME280;3244;42.708;23.288;2023-03-17T01:00:23;95234.25;;;4.44;82.33
6423;BME280;3244;42.708;23.288;2023-03-17T01:02:52;95235.97;;;4.39;82.58
6423;BME280;3244;42.708;23.288;2023-03-17T01:05:21;95234.31;;;4.36;82.53
6423;BME280;3244;42.708;23.288;2023-03-17T01:07:50;95230.97;;;4.34;82.78
6423;BME280;3244;42.708;23.288;2023-03-17T01:10:21;95231.78;;;4.35;82.98
6423;BME280;3244;42.708;23.288;2023-03-17T01:12:52;95235.13;;;4.37;82.67
6423;BME280;3244;42.708;23.288;2023-03-17T01:15:21;95237.66;;;4.35;83.04
6423;BME280;3244;42.708;23.288;2023-03-17T01:17:48;95228.47;;;4.30;82.66
6423;BME280;3244;42.708;23.288;2023-03-17T01:20:18;95236.84;;;4.32;82.95
6423;BME280;3244;42.708;23.288;2023-03-17T01:22:46;95235.97;;;4.37;82.67
6423;BME280;3244;42.708;23.288;2023-03-17T01:25:13;95235.13;;;4.37;82.68
6423;BME280;3244;42.708;23.288;2023-03-17T01:27:41;95238.44;;;4.45;82.20
6423;BME280;3244;42.708;23.288;2023-03-17T01:30:21;95240.06;;;4.49;81.74
6423;BME280;3244;42.708;23.288;2023-03-17T01:32:48;95238.41;;;4.48;82.15
6423;BME280;3244;42.708;23.288;2023-03-17T01:35:15;95240.06;;;4.49;81.88
6423;BME280;3244;42.708;23.288;2023-03-17T01:37:42;95237.56;;;4.48;82.16
6423;BME280;3244;42.708;23.288;2023-03-17T01:40:13;95240.97;;;4.42;82.72
6423;BME280;3244;42.708;23.288;2023-03-17T01:42:44;95245.19;;;4.40;82.51
6423;BME280;3244;42.708;23.288;2023-03-17T01:48:19;95231.81;;;4.32;82.63
6423;BME280;3244;42.708;23.288;2023-03-17T01:50:46;95243.53;;;4.36;82.34
6423;BME280;3244;42.708;23.288;2023-03-17T01:53:14;95246.03;;;4.39;82.77
6423;BME280;3244;42.708;23.288;2023-03-17T01:55:42;95252.72;;;4.41;82.32
6423;BME280;3244;42.708;23.288;2023-03-17T01:58:12;95247.69;;;4.40;82.36
6423;BME280;3244;42.708;23.288;2023-03-17T02:00:40;95256.09;;;4.39;82.17
6423;BME280;3244;42.708;23.288;2023-03-17T02:03:08;95250.25;;;4.34;82.32
6423;BME280;3244;42.708;23.288;2023-03-17T02:05:37;95251.97;;;4.26;82.37
6423;BME280;3244;42.708;23.288;2023-03-17T02:08:08;95247.75;;;4.29;82.38
6423;BME280;3244;42.708;23.288;2023-03-17T02:10:36;95255.28;;;4.34;82.12
6423;BME280;3244;42.708;23.288;2023-03-17T02:13:04;95245.22;;;4.31;82.10
6423;BME280;3244;42.708;23.288;2023-03-17T02:15:36;95258.59;;;4.39;82.14
6423;BME280;3244;42.708;23.288;2023-03-17T02:18:05;95258.63;;;4.33;82.35
6423;BME280;3244;42.708;23.288;2023-03-17T02:23:40;95262.81;;;4.35;82.09
6423;BME280;3244;42.708;23.288;2023-03-17T02:26:07;95267.03;;;4.32;82.57
6423;BME280;3244;42.708;23.288;2023-03-17T02:28:34;95272.88;;;4.34;82.85
6423;BME280;3244;42.708;23.288;2023-03-17T02:31:01;95267.03;;;4.35;82.94
6423;BME280;3244;42.708;23.288;2023-03-17T02:33:29;95266.97;;;4.42;82.65
6423;BME280;3244;42.708;23.288;2023-03-17T02:35:56;95270.31;;;4.44;82.50
6423;BME280;3244;42.708;23.288;2023-03-17T02:38:22;95268.69;;;4.36;82.32
6423;BME280;3244;42.708;23.288;2023-03-17T02:40:50;95272.91;;;4.32;82.32
6423;BME280;3244;42.708;23.288;2023-03-17T02:43:17;95264.53;;;4.30;81.95
6423;BME280;3244;42.708;23.288;2023-03-17T02:45:44;95278.78;;;4.33;81.72
6423;BME280;3244;42.708;23.288;2023-03-17T02:48:11;95283.78;;;4.36;81.93
6423;BME280;3244;42.708;23.288;2023-03-17T02:50:37;95282.97;;;4.32;81.80
6423;BME280;3244;42.708;23.288;2023-03-17T02:53:05;95288.00;;;4.29;82.23
6423;BME280;3244;42.708;23.288;2023-03-17T02:55:32;95288.84;;;4.28;82.48
6423;BME280;3244;42.708;23.288;2023-03-17T02:58:00;95293.88;;;4.31;82.16
6423;BME280;3244;42.708;23.288;2023-03-17T03:00:27;95290.53;;;4.31;82.31
6423;BME280;3244;42.708;23.288;2023-03-17T03:02:54;95288.84;;;4.33;82.21
6423;BME280;3244;42.708;23.288;2023-03-17T03:05:21;95284.63;;;4.35;82.07
6423;BME280;3244;42.708;23.288;2023-03-17T03:07:48;95299.72;;;4.36;82.17
6423;BME280;3244;42.708;23.288;2023-03-17T03:10:15;95293.00;;;4.38;82.00
6423;BME280;3244;42.708;23.288;2023-03-17T03:12:43;95300.53;;;4.41;81.61
6423;BME280;3244;42.708;23.288;2023-03-17T03:15:12;95302.22;;;4.42;81.92
6423;BME280;3244;42.708;23.288;2023-03-17T03:17:38;95298.00;;;4.44;81.77
6423;BME280;3244;42.708;23.288;2023-03-17T03:20:07;95293.75;;;4.48;81.59
6423;BME280;3244;42.708;23.288;2023-03-17T03:22:36;95304.72;;;4.42;81.57
6423;BME280;3244;42.708;23.288;2023-03-17T03:25:03;95303.91;;;4.39;81.63
6423;BME280;3244;42.708;23.288;2023-03-17T03:27:30;95305.63;;;4.31;81.61
6423;BME280;3244;42.708;23.288;2023-03-17T03:29:57;95309.00;;;4.27;81.19
6423;BME280;3244;42.708;23.288;2023-03-17T03:32:25;95317.38;;;4.26;81.64
6423;BME280;3244;42.708;23.288;2023-03-17T03:34:52;95320.81;;;4.16;81.75
6423;BME280;3244;42.708;23.288;2023-03-17T03:37:19;95319.16;;;4.08;82.38
6423;BME280;3244;42.708;23.288;2023-03-17T03:39:46;95319.97;;;4.10;81.82
6423;BME280;3244;42.708;23.288;2023-03-17T03:42:13;95313.28;;;4.06;82.49
6423;BME280;3244;42.708;23.288;2023-03-17T03:44:40;95309.94;;;4.04;82.59
6423;BME280;3244;42.708;23.288;2023-03-17T03:47:07;95323.31;;;4.13;82.38
6423;BME280;3244;42.708;23.288;2023-03-17T03:49:35;95324.97;;;4.18;82.77
6423;BME280;3244;42.708;23.288;2023-03-17T03:52:02;95320.72;;;4.25;82.15
6423;BME280;3244;42.708;23.288;2023-03-17T03:54:29;95318.22;;;4.25;82.02
6423;BME280;3244;42.708;23.288;2023-03-17T03:56:56;95319.91;;;4.21;82.34
6423;BME280;3244;42.708;23.288;2023-03-17T03:59:22;95326.63;;;4.21;82.71
6423;BME280;3244;42.708;23.288;2023-03-17T04:01:49;95324.09;;;4.24;82.87
6423;BME280;3244;42.708;23.288;2023-03-17T04:04:16;95323.22;;;4.31;82.47
6423;BME280;3244;42.708;23.288;2023-03-17T04:06:44;95326.59;;;4.27;82.43
6423;BME280;3244;42.708;23.288;2023-03-17T04:09:10;95334.16;;;4.24;82.90
6423;BME280;3244;42.708;23.288;2023-03-17T04:11:37;95340.03;;;4.23;82.62
6423;BME280;3244;42.708;23.288;2023-03-17T04:14:04;95347.56;;;4.23;81.81
6423;BME280;3244;42.708;23.288;2023-03-17T04:16:31;95340.00;;;4.26;81.80
6423;BME280;3244;42.708;23.288;2023-03-17T04:18:58;95344.22;;;4.22;81.29
6423;BME280;3244;42.708;23.288;2023-03-17T04:21:25;95345.06;;;4.21;81.35
6423;BME280;3244;42.708;23.288;2023-03-17T04:23:53;95349.25;;;4.24;81.63
6423;BME280;3244;42.708;23.288;2023-03-17T04:26:19;95352.59;;;4.23;81.62
6423;BME280;3244;42.708;23.288;2023-03-17T04:28:47;95345.09;;;4.17;81.87
6423;BME280;3244;42.708;23.288;2023-03-17T04:31:14;95352.59;;;4.23;81.48
6423;BME280;3244;42.708;23.288;2023-03-17T04:33:41;95345.13;;;4.15;81.09
6423;BME280;3244;42.708;23.288;2023-03-17T04:36:14;95353.44;;;4.23;81.16
6423;BME280;3244;42.708;23.288;2023-03-17T04:38:42;95358.47;;;4.22;80.58
6423;BME280;3244;42.708;23.288;2023-03-17T04:41:10;95354.25;;;4.30;79.83
6423;BME280;3244;42.708;23.288;2023-03-17T04:43:37;95356.75;;;4.33;79.63
6423;BME280;3244;42.708;23.288;2023-03-17T04:46:04;95367.69;;;4.26;79.81
6423;BME280;3244;42.708;23.288;2023-03-17T04:48:31;95366.03;;;4.23;80.66
6423;BME280;3244;42.708;23.288;2023-03-17T04:50:57;95368.50;;;4.29;80.65
6423;BME280;3244;42.708;23.288;2023-03-17T04:53:24;95366.00;;;4.25;80.64
6423;BME280;3244;42.708;23.288;2023-03-17T04:55:51;95371.09;;;4.19;80.57
6423;BME280;3244;42.708;23.288;2023-03-17T04:58:19;95376.06;;;4.28;80.84
6423;BME280;3244;42.708;23.288;2023-03-17T05:00:46;95379.41;;;4.36;80.26
6423;BME280;3244;42.708;23.288;2023-03-17T05:03:13;95385.25;;;4.36;80.33
6423;BME280;3244;42.708;23.288;2023-03-17T05:05:40;95381.06;;;4.40;80.43
6423;BME280;3244;42.708;23.288;2023-03-17T05:08:07;95383.50;;;4.49;80.20
6423;BME280;3244;42.708;23.288;2023-03-17T05:10:33;95391.03;;;4.54;79.17
6423;BME280;3244;42.708;23.288;2023-03-17T05:13:00;95386.91;;;4.45;79.74
6423;BME280;3244;42.708;23.288;2023-03-17T05:15:29;95396.09;;;4.49;79.36
6423;BME280;3244;42.708;23.288;2023-03-17T05:17:56;95398.63;;;4.48;79.70
6423;BME280;3244;42.708;23.288;2023-03-17T05:20:23;95406.16;;;4.52;79.42
6423;BME280;3244;42.708;23.288;2023-03-17T05:22:49;95401.94;;;4.59;79.09
6423;BME280;3244;42.708;23.288;2023-03-17T05:25:16;95407.81;;;4.59;79.14
6423;BME280;3244;42.708;23.288;2023-03-17T05:27:43;95410.31;;;4.59;79.10
6423;BME280;3244;42.708;23.288;2023-03-17T05:30:11;95412.00;;;4.59;79.19
6423;BME280;3244;42.708;23.288;2023-03-17T05:32:39;95414.50;;;4.66;79.67
6423;BME280;3244;42.708;23.288;2023-03-17T05:35:06;95417.75;;;4.81;79.21
6423;BME280;3244;42.708;23.288;2023-03-17T05:37:33;95421.91;;;4.91;78.46
6423;BME280;3244;42.708;23.288;2023-03-17T05:40:00;95418.56;;;4.87;78.13
6423;BME280;3244;42.708;23.288;2023-03-17T05:42:27;95417.72;;;4.87;78.21
6423;BME280;3244;42.708;23.288;2023-03-17T05:44:54;95426.13;;;4.86;78.32
6423;BME280;3244;42.708;23.288;2023-03-17T05:47:20;95419.31;;;4.98;77.70
6423;BME280;3244;42.708;23.288;2023-03-17T05:49:49;95423.47;;;5.08;77.84
6423;BME280;3244;42.708;23.288;2023-03-17T05:52:16;95409.22;;;5.04;77.28
6423;BME280;3244;42.708;23.288;2023-03-17T05:54:42;95425.09;;;5.14;77.09
6423;BME280;3244;42.708;23.288;2023-03-17T05:57:12;95421.72;;;5.20;77.31
6423;BME280;3244;42.708;23.288;2023-03-17T05:59:38;95426.69;;;5.27;77.09
6423;BME280;3244;42.708;23.288;2023-03-17T06:02:07;95434.19;;;5.33;77.00
6423;BME280;3244;42.708;23.288;2023-03-17T06:04:34;95445.91;;;5.43;76.91
6423;BME280;3244;42.708;23.288;2023-03-17T06:07:03;95457.56;;;5.54;76.40
6423;BME280;3244;42.708;23.288;2023-03-17T06:09:30;95458.34;;;5.62;75.93
6423;BME280;3244;42.708;23.288;2023-03-17T06:11:57;95462.53;;;5.66;75.28
6423;BME280;3244;42.708;23.288;2023-03-17T06:14:24;95469.97;;;5.78;74.62
6423;BME280;3244;42.708;23.288;2023-03-17T06:16:51;95469.06;;;5.85;74.43
6423;BME280;3244;42.708;23.288;2023-03-17T06:19:18;95457.28;;;5.90;73.91
6423;BME280;3244;42.708;23.288;2023-03-17T06:21:44;95468.19;;;5.94;73.91
6423;BME280;3244;42.708;23.288;2023-03-17T06:24:12;95465.59;;;5.98;74.83
6423;BME280;3244;42.708;23.288;2023-03-17T06:26:39;95471.41;;;6.08;74.00
6423;BME280;3244;42.708;23.288;2023-03-17T06:29:06;95472.06;;;6.27;73.70
6423;BME280;3244;42.708;23.288;2023-03-17T06:31:34;95478.66;;;6.41;72.80
6423;BME280;3244;42.708;23.288;2023-03-17T06:34:01;95478.47;;;6.55;72.10
6423;BME280;3244;42.708;23.288;2023-03-17T06:36:28;95475.97;;;6.55;72.10
6423;BME280;3244;42.708;23.288;2023-03-17T06:38:54;95470.81;;;6.63;71.64
6423;BME280;3244;42.708;23.288;2023-03-17T06:41:22;95480.00;;;6.68;70.83
6423;BME280;3244;42.708;23.288;2023-03-17T06:43:49;95478.28;;;6.70;69.56
6423;BME280;3244;42.708;23.288;2023-03-17T06:46:16;95487.47;;;6.77;70.37
6423;BME280;3244;42.708;23.288;2023-03-17T06:48:43;95483.22;;;6.82;70.69
6423;BME280;3244;42.708;23.288;2023-03-17T06:51:10;95486.31;;;7.03;70.35
6423;BME280;3244;42.708;23.288;2023-03-17T06:53:37;95494.66;;;7.09;68.92
6423;BME280;3244;42.708;23.288;2023-03-17T06:56:03;95486.19;;;7.12;69.33
6423;BME280;3244;42.708;23.288;2023-03-17T06:58:32;95487.84;;;7.16;68.95
6423;BME280;3244;42.708;23.288;2023-03-17T07:00:58;95486.06;;;7.21;68.73
6423;BME280;3244;42.708;23.288;2023-03-17T07:03:26;95486.69;;;7.37;67.14
6423;BME280;3244;42.708;23.288;2023-03-17T07:05:53;95490.88;;;7.39;67.67
6423;BME280;3244;42.708;23.288;2023-03-17T07:08:20;95494.97;;;7.45;68.05
6423;BME280;3244;42.708;23.288;2023-03-17T07:10:47;95491.44;;;7.58;67.72
6423;BME280;3244;42.708;23.288;2023-03-17T07:13:14;95484.69;;;7.59;67.33
6423;BME280;3244;42.708;23.288;2023-03-17T07:15:43;95490.59;;;7.58;66.41
6423;BME280;3244;42.708;23.288;2023-03-17T07:18:10;95495.38;;;7.74;65.58
6423;BME280;3244;42.708;23.288;2023-03-17T07:20:37;95496.16;;;7.79;65.87
6423;BME280;3244;42.708;23.288;2023-03-17T07:23:04;95499.44;;;7.86;66.04
6423;BME280;3244;42.708;23.288;2023-03-17T07:25:31;95498.41;;;7.96;66.21
6423;BME280;3244;42.708;23.288;2023-03-17T07:28:01;95499.97;;;8.03;64.66
6423;BME280;3244;42.708;23.288;2023-03-17T07:30:28;95503.84;;;8.23;64.07
6423;BME280;3244;42.708;23.288;2023-03-17T07:32:56;95502.88;;;8.33;63.18
6423;BME280;3244;42.708;23.288;2023-03-17T07:35:23;95502.00;;;8.35;61.86
6423;BME280;3244;42.708;23.288;2023-03-17T07:37:49;95502.69;;;8.42;61.95
6423;BME280;3244;42.708;23.288;2023-03-17T07:40:16;95496.13;;;8.32;61.93
6423;BME280;3244;42.708;23.288;2023-03-17T07:42:43;95501.19;;;8.30;63.04
6423;BME280;3244;42.708;23.288;2023-03-17T07:45:10;95509.38;;;8.46;63.00
6423;BME280;3244;42.708;23.288;2023-03-17T07:47:37;95507.38;;;8.63;62.52
6423;BME280;3244;42.708;23.288;2023-03-17T07:50:06;95513.19;;;8.68;62.60
6423;BME280;3244;42.708;23.288;2023-03-17T07:52:34;95503.91;;;8.67;62.95
6423;BME280;3244;42.708;23.288;2023-03-17T07:55:01;95511.94;;;8.91;62.06
6423;BME280;3244;42.708;23.288;2023-03-17T07:57:27;95512.59;;;8.99;59.65
6423;BME280;3244;42.708;23.288;2023-03-17T07:59:54;95510.13;;;8.96;59.73
6423;BME280;3244;42.708;23.288;2023-03-17T08:02:21;95511.03;;;8.92;59.61
6423;BME280;3244;42.708;23.288;2023-03-17T08:04:48;95523.53;;;9.01;59.38
6423;BME280;3244;42.708;23.288;2023-03-17T08:07:17;95518.97;;;9.16;59.39
6423;BME280;3244;42.708;23.288;2023-03-17T08:09:44;95521.41;;;9.21;59.70
6423;BME280;3244;42.708;23.288;2023-03-17T08:12:11;95521.38;;;9.23;58.26
6423;BME280;3244;42.708;23.288;2023-03-17T08:14:38;95523.22;;;9.16;59.15
6423;BME280;3244;42.708;23.288;2023-03-17T08:17:06;95522.44;;;9.14;59.23
6423;BME280;3244;42.708;23.288;2023-03-17T08:19:33;95528.06;;;9.27;58.76
6423;BME280;3244;42.708;23.288;2023-03-17T08:22:00;95518.75;;;9.27;58.72
6423;BME280;3244;42.708;23.288;2023-03-17T08:24:28;95529.66;;;9.32;57.39
6423;BME280;3244;42.708;23.288;2023-03-17T08:26:54;95524.63;;;9.29;57.51
6423;BME280;3244;42.708;23.288;2023-03-17T08:29:21;95519.53;;;9.31;57.77
6423;BME280;3244;42.708;23.288;2023-03-17T08:31:48;95519.53;;;9.31;56.47
6423;BME280;3244;42.708;23.288;2023-03-17T08:34:14;95522.88;;;9.33;57.15
6423;BME280;3244;42.708;23.288;2023-03-17T08:36:41;95521.13;;;9.36;56.95
6423;BME280;3244;42.708;23.288;2023-03-17T08:39:08;95522.63;;;9.43;56.77
6423;BME280;3244;42.708;23.288;2023-03-17T08:41:37;95514.88;;;9.49;56.80
6423;BME280;3244;42.708;23.288;2023-03-17T08:44:04;95521.59;;;9.52;57.25
6423;BME280;3244;42.708;23.288;2023-03-17T08:46:33;95521.47;;;9.58;57.15
6423;BME280;3244;42.708;23.288;2023-03-17T08:49:00;95519.81;;;9.57;56.08
6423;BME280;3244;42.708;23.288;2023-03-17T08:51:29;95522.63;;;9.43;55.73
6423;BME280;3244;42.708;23.288;2023-03-17T08:53:56;95528.56;;;9.42;56.11
6423;BME280;3244;42.708;23.288;2023-03-17T08:56:24;95527.19;;;9.29;55.24
6423;BME280;3244;42.708;23.288;2023-03-17T08:58:53;95526.19;;;9.36;56.31
6423;BME280;3244;42.708;23.288;2023-03-17T09:01:20;95527.91;;;9.34;56.40
6423;BME280;3244;42.708;23.288;2023-03-17T09:03:49;95523.25;;;9.54;55.91
6423;BME280;3244;42.708;23.288;2023-03-17T09:06:15;95520.50;;;9.64;55.70
6423;BME280;3244;42.708;23.288;2023-03-17T09:08:42;95524.38;;;9.78;54.96
6423;BME280;3244;42.708;23.288;2023-03-17T09:11:13;95522.81;;;9.73;54.86
6423;BME280;3244;42.708;23.288;2023-03-17T09:13:41;95533.81;;;9.73;54.54
6423;BME280;3244;42.708;23.288;2023-03-17T09:16:09;95532.84;;;9.40;55.91
6423;BME280;3244;42.708;23.288;2023-03-17T09:18:36;95528.16;;;9.22;55.80
6423;BME280;3244;42.708;23.288;2023-03-17T09:21:03;95530.81;;;9.16;56.68
6423;BME280;3244;42.708;23.288;2023-03-17T09:23:31;95529.06;;;9.19;56.39
6423;BME280;3244;42.708;23.288;2023-03-17T09:25:58;95531.25;;;9.36;55.82
6423;BME280;3244;42.708;23.288;2023-03-17T09:28:25;95529.53;;;9.38;55.42
6423;BME280;3244;42.708;23.288;2023-03-17T09:30:56;95529.81;;;9.63;55.69
6423;BME280;3244;42.708;23.288;2023-03-17T09:33:25;95522.22;;;9.99;54.99
6423;BME280;3244;42.708;23.288;2023-03-17T09:35:52;95521.66;;;10.23;54.57
6423;BME280;3244;42.708;23.288;2023-03-17T09:38:21;95529.25;;;10.57;53.92
6423;BME280;3244;42.708;23.288;2023-03-17T09:40:54;95526.91;;;10.49;52.62
6423;BME280;3244;42.708;23.288;2023-03-17T09:43:27;95531.84;;;10.55;52.47
6423;BME280;3244;42.708;23.288;2023-03-17T09:46:13;95533.03;;;10.73;51.72
6423;BME280;3244;42.708;23.288;2023-03-17T09:48:49;95534.56;;;10.80;51.18
6423;BME280;3244;42.708;23.288;2023-03-17T09:51:19;95544.47;;;10.89;52.01
6423;BME280;3244;42.708;23.288;2023-03-17T09:53:51;95536.50;;;11.02;52.58
6423;BME280;3244;42.708;23.288;2023-03-17T09:56:19;95540.84;;;10.98;51.29
6423;BME280;3244;42.708;23.288;2023-03-17T09:58:52;95546.09;;;10.92;50.32
6423;BME280;3244;42.708;23.288;2023-03-17T10:01:19;95547.22;;;10.49;51.95
6423;BME280;3244;42.708;23.288;2023-03-17T10:03:49;95529.78;;;10.37;52.31
6423;BME280;3244;42.708;23.288;2023-03-17T10:06:26;95543.84;;;10.49;52.15
6423;BME280;3244;42.708;23.288;2023-03-17T10:09:01;95539.09;;;10.69;51.11
6423;BME280;3244;42.708;23.288;2023-03-17T10:11:38;95538.06;;;10.76;51.25
6423;BME280;3244;42.708;23.288;2023-03-17T10:14:14;95534.41;;;10.86;50.48
6423;BME280;3244;42.708;23.288;2023-03-17T10:16:48;95532.03;;;10.80;51.09
6423;BME280;3244;42.708;23.288;2023-03-17T10:19:24;95532.13;;;10.76;50.65
6423;BME280;3244;42.708;23.288;2023-03-17T10:21:55;95529.31;;;10.86;49.71
6423;BME280;3244;42.708;23.288;2023-03-17T10:24:23;95529.84;;;10.98;49.72
6423;BME280;3244;42.708;23.288;2023-03-17T10:26:51;95530.34;;;11.10;49.29
6423;BME280;3244;42.708;23.288;2023-03-17T10:29:22;95515.38;;;11.00;49.35
6423;BME280;3244;42.708;23.288;2023-03-17T10:31:50;95531.13;;;11.12;48.99
6423;BME280;3244;42.708;23.288;2023-03-17T10:34:22;95529.69;;;11.04;48.43
6423;BME280;3244;42.708;23.288;2023-03-17T10:36:54;95525.72;;;10.94;49.68
6423;BME280;3244;42.708;23.288;2023-03-17T10:39:22;95534.88;;;10.99;48.91
6423;BME280;3244;42.708;23.288;2023-03-17T10:41:55;95532.75;;;11.15;48.20
6423;BME280;3244;42.708;23.288;2023-03-17T10:44:32;95525.22;;;11.12;47.85
6423;BME280;3244;42.708;23.288;2023-03-17T10:47:01;95521.97;;;11.07;48.68
6423;BME280;3244;42.708;23.288;2023-03-17T10:49:34;95509.41;;;11.30;48.81
6423;BME280;3244;42.708;23.288;2023-03-17T10:52:05;95500.75;;;11.37;47.61
6423;BME280;3244;42.708;23.288;2023-03-17T10:54:34;95504.25;;;11.61;46.54
6423;BME280;3244;42.708;23.288;2023-03-17T10:57:04;95495.44;;;11.71;46.19
6423;BME280;3244;42.708;23.288;2023-03-17T10:59:37;95492.75;;;11.76;46.42
6423;BME280;3244;42.708;23.288;2023-03-17T11:02:18;95487.56;;;12.07;45.52
6423;BME280;3244;42.708;23.288;2023-03-17T11:04:47;95480.63;;;12.37;44.83
6423;BME280;3244;42.708;23.288;2023-03-17T11:07:16;95478.75;;;12.65;44.01
6423;BME280;3244;42.708;23.288;2023-03-17T11:09:47;95474.03;;;12.79;42.83
6423;BME280;3244;42.708;23.288;2023-03-17T11:12:23;95480.13;;;12.99;43.07
6423;BME280;3244;42.708;23.288;2023-03-17T11:14:54;95483.25;;;13.30;42.93
6423;BME280;3244;42.708;23.288;2023-03-17T11:17:33;95479.75;;;13.54;41.60
6423;BME280;3244;42.708;23.288;2023-03-17T11:20:14;95484.53;;;13.40;41.94
6423;BME280;3244;42.708;23.288;2023-03-17T11:22:52;95489.97;;;13.33;41.39
6423;BME280;3244;42.708;23.288;2023-03-17T11:25:21;95486.41;;;13.12;41.56
6423;BME280;3244;42.708;23.288;2023-03-17T11:28:05;95482.84;;;12.94;42.18
6423;BME280;3244;42.708;23.288;2023-03-17T11:30:38;95477.88;;;13.13;41.17
6423;BME280;3244;42.708;23.288;2023-03-17T11:33:16;95473.56;;;13.38;42.30
6423;BME280;3244;42.708;23.288;2023-03-17T11:35:53;95476.88;;;13.40;41.48
6423;BME280;3244;42.708;23.288;2023-03-17T11:38:25;95476.56;;;13.03;41.43
6423;BME280;3244;42.708;23.288;2023-03-17T11:41:09;95472.34;;;12.78;41.45
6423;BME280;3244;42.708;23.288;2023-03-17T11:43:51;95471.09;;;12.65;42.59
6423;BME280;3244;42.708;23.288;2023-03-17T11:46:27;95467.91;;;12.35;42.46
6423;BME280;3244;42.708;23.288;2023-03-17T11:48:58;95470.19;;;12.43;42.47
6423;BME280;3244;42.708;23.288;2023-03-17T11:51:35;95466.78;;;12.67;42.75
6423;BME280;3244;42.708;23.288;2023-03-17T11:54:09;95470.69;;;12.77;42.08
6423;BME280;3244;42.708;23.288;2023-03-17T11:56:40;95463.91;;;12.76;41.58
6423;BME280;3244;42.708;23.288;2023-03-17T11:59:16;95463.22;;;12.48;41.74
6423;BME280;3244;42.708;23.288;2023-03-17T12:01:50;95462.97;;;11.79;43.04
6423;BME280;3244;42.708;23.288;2023-03-17T12:04:25;95462.50;;;11.11;44.84
6423;BME280;3244;42.708;23.288;2023-03-17T12:06:59;95458.41;;;11.05;45.16
6423;BME280;3244;42.708;23.288;2023-03-17T12:09:30;95441.13;;;10.88;45.32
6423;BME280;3244;42.708;23.288;2023-03-17T12:12:01;95439.56;;;11.12;45.75
6423;BME280;3244;42.708;23.288;2023-03-17T12:14:32;95453.88;;;11.15;45.36
6423;BME280;3244;42.708;23.288;2023-03-17T12:17:04;95442.09;;;11.40;45.20
6423;BME280;3244;42.708;23.288;2023-03-17T12:19:38;95440.34;;;11.42;44.70
6423;BME280;3244;42.708;23.288;2023-03-17T12:22:16;95422.59;;;11.39;45.22
6423;BME280;3244;42.708;23.288;2023-03-17T12:24:49;95431.72;;;11.46;45.28
6423;BME280;3244;42.708;23.288;2023-03-17T12:27:23;95438.88;;;11.35;43.56
6423;BME280;3244;42.708;23.288;2023-03-17T12:29:56;95439.38;;;10.89;45.05
6423;BME280;3244;42.708;23.288;2023-03-17T12:32:27;95444.69;;;10.52;46.41
6423;BME280;3244;42.708;23.288;2023-03-17T12:34:56;95441.31;;;10.19;47.80
6423;BME280;3244;42.708;23.288;2023-03-17T12:37:25;95437.41;;;10.06;47.04
6423;BME280;3244;42.708;23.288;2023-03-17T12:39:56;95443.06;;;10.15;46.80
6423;BME280;3244;42.708;23.288;2023-03-17T12:42:36;95440.63;;;10.45;47.27
6423;BME280;3244;42.708;23.288;2023-03-17T12:45:24;95430.41;;;10.77;46.73
6423;BME280;3244;42.708;23.288;2023-03-17T12:51:08;95440.75;;;10.40;46.02
6423;BME280;3244;42.708;23.288;2023-03-17T12:53:44;95437.91;;;10.18;45.92
6423;BME280;3244;42.708;23.288;2023-03-17T12:56:18;95441.72;;;10.02;45.44
6423;BME280;3244;42.708;23.288;2023-03-17T12:58:47;95437.97;;;9.83;45.75
6423;BME280;3244;42.708;23.288;2023-03-17T13:01:21;95434.66;;;9.81;46.80
6423;BME280;3244;42.708;23.288;2023-03-17T13:04:01;95435.41;;;9.84;48.56
6423;BME280;3244;42.708;23.288;2023-03-17T13:06:30;95428.13;;;9.71;48.64
6423;BME280;3244;42.708;23.288;2023-03-17T13:11:55;95437.78;;;9.57;48.04
6423;BME280;3244;42.708;23.288;2023-03-17T13:14:25;95438.91;;;9.43;47.07
6423;BME280;3244;42.708;23.288;2023-03-17T13:17:04;95438.63;;;9.57;47.45
6423;BME280;3244;42.708;23.288;2023-03-17T13:19:58;95435.75;;;9.35;46.50
6423;BME280;3244;42.708;23.288;2023-03-17T13:22:35;95432.22;;;9.41;47.78
6423;BME280;3244;42.708;23.288;2023-03-17T13:25:13;95435.09;;;9.63;46.93
6423;BME280;3244;42.708;23.288;2023-03-17T13:27:44;95434.78;;;9.75;46.88
6423;BME280;3244;42.708;23.288;2023-03-17T13:33:21;95437.66;;;10.29;46.57
6423;BME280;3244;42.708;23.288;2023-03-17T13:35:58;95430.47;;;10.45;47.17
6423;BME280;3244;42.708;23.288;2023-03-17T13:38:41;95427.13;;;10.43;47.40
6423;BME280;3244;42.708;23.288;2023-03-17T13:41:17;95428.34;;;10.30;48.09
6423;BME280;3244;42.708;23.288;2023-03-17T13:44:01;95431.13;;;10.20;48.57
6423;BME280;3244;42.708;23.288;2023-03-17T13:46:39;95438.78;;;9.85;49.29